createdAt,value
2018-12-24T00:01:23.953Z,1.20
2018-12-24T00:03:54.381Z,1.10
2018-12-24T00:06:24.789Z,1.47
2018-12-24T00:08:55.145Z,1.53
2018-12-24T00:11:25.449Z,1.50
2018-12-24T00:13:55.713Z,1.90
2018-12-24T00:16:26.082Z,1.70
2018-12-24T00:18:56.337Z,2.27
2018-12-24T00:21:26.625Z,3.20
2018-12-24T00:23:56.933Z,3.13
2018-12-24T00:26:27.249Z,3.07
2018-12-24T00:28:57.611Z,3.30
2018-12-24T00:31:27.925Z,2.73
2018-12-24T00:33:58.289Z,2.73
2018-12-24T00:36:28.953Z,2.60
2018-12-24T00:38:59.263Z,2.77
2018-12-24T00:41:41.655Z,2.40
2018-12-24T00:44:12.335Z,2.03
2018-12-24T00:46:42.729Z,2.47
2018-12-24T00:49:13.034Z,1.67
2018-12-24T00:51:43.431Z,1.80
2018-12-24T00:54:13.721Z,1.80
2018-12-24T00:56:44.218Z,1.70
2018-12-24T00:59:14.692Z,2.10
2018-12-24T01:01:45.586Z,1.80
2018-12-24T01:04:15.946Z,1.57
2018-12-24T01:06:46.267Z,1.70
2018-12-24T01:09:16.560Z,1.63
2018-12-24T01:11:46.865Z,1.20
2018-12-24T01:14:17.164Z,1.17
2018-12-24T01:16:47.809Z,1.23
2018-12-24T01:19:18.466Z,1.20
2018-12-24T01:21:48.733Z,1.10
2018-12-24T01:24:19.042Z,1.20
2018-12-24T01:26:49.370Z,1.10
2018-12-24T01:29:19.757Z,1.60
2018-12-24T01:31:51.458Z,1.10
2018-12-24T01:34:21.857Z,1.17
2018-12-24T01:36:52.237Z,1.57
2018-12-24T01:39:22.597Z,1.30
2018-12-24T01:41:53.398Z,1.50
2018-12-24T01:44:23.723Z,1.30
2018-12-24T01:46:53.993Z,1.30
2018-12-24T01:49:24.340Z,1.43
2018-12-24T01:51:54.704Z,1.57
2018-12-24T01:54:24.994Z,1.60
2018-12-24T01:56:55.356Z,1.87
2018-12-24T01:59:25.751Z,2.10
2018-12-24T02:01:56.097Z,1.93
2018-12-24T02:04:26.591Z,2.10
2018-12-24T02:06:57.085Z,2.30
2018-12-24T02:09:27.372Z,2.37
2018-12-24T02:11:57.644Z,2.23
2018-12-24T02:14:27.973Z,2.63
2018-12-24T02:16:58.238Z,3.00
2018-12-24T02:19:28.872Z,3.30
2018-12-24T02:21:59.136Z,4.03
2018-12-24T02:24:30.341Z,4.83
2018-12-24T02:27:00.961Z,4.60
2018-12-24T02:29:31.585Z,4.40
2018-12-24T02:32:01.866Z,4.87
2018-12-24T02:34:32.204Z,5.73
2018-12-24T02:37:02.662Z,5.57
2018-12-24T02:39:33.108Z,5.97
2018-12-24T02:42:03.623Z,6.03
2018-12-24T02:44:33.941Z,6.70
2018-12-24T02:47:04.910Z,7.53
2018-12-24T02:49:35.780Z,9.70
2018-12-24T02:52:07.185Z,8.30
2018-12-24T02:54:37.662Z,8.33
2018-12-24T02:57:07.988Z,7.90
2018-12-24T02:59:38.358Z,8.03
2018-12-24T03:02:08.759Z,7.93
2018-12-24T03:04:39.529Z,9.03
2018-12-24T03:07:09.388Z,8.60
2018-12-24T03:09:39.700Z,8.27
2018-12-24T03:12:09.985Z,7.90
2018-12-24T03:14:40.354Z,8.20
2018-12-24T03:17:10.685Z,8.40
2018-12-24T03:19:41.391Z,7.70
2018-12-24T03:22:11.683Z,6.93
2018-12-24T03:24:41.975Z,7.00
2018-12-24T03:27:12.363Z,8.10
2018-12-24T03:29:42.659Z,6.80
2018-12-24T03:32:14.457Z,6.80
2018-12-24T03:34:44.324Z,7.13
2018-12-24T03:37:14.078Z,8.50
2018-12-24T03:39:44.289Z,7.60
2018-12-24T03:42:14.586Z,8.90
2018-12-24T03:44:44.888Z,8.40
2018-12-24T03:47:15.602Z,8.47
2018-12-24T03:49:45.909Z,8.73
2018-12-24T03:52:16.185Z,7.90
2018-12-24T03:54:46.782Z,8.30
2018-12-24T03:57:17.056Z,8.80
2018-12-24T03:59:47.346Z,7.57
2018-12-24T04:02:17.616Z,7.93
2018-12-24T04:04:48.071Z,6.00
2018-12-24T04:07:18.360Z,5.50
2018-12-24T04:09:49.515Z,6.00
2018-12-24T04:12:19.901Z,5.63
2018-12-24T04:14:50.262Z,7.10
2018-12-24T04:17:20.521Z,8.80
2018-12-24T04:19:50.920Z,8.33
2018-12-24T04:22:22.020Z,9.30
2018-12-24T04:24:52.417Z,9.37
2018-12-24T04:27:22.677Z,8.50
2018-12-24T04:29:53.048Z,7.70
2018-12-24T04:32:23.430Z,7.37
2018-12-24T04:34:53.739Z,7.73
2018-12-24T04:37:24.096Z,9.00
2018-12-24T04:39:54.393Z,8.97
2018-12-24T04:42:24.777Z,8.07
2018-12-24T04:44:55.755Z,8.13
2018-12-24T04:47:26.051Z,8.13
2018-12-24T04:49:56.410Z,9.20
2018-12-24T04:52:27.074Z,8.70
2018-12-24T04:54:57.439Z,8.67
2018-12-24T04:57:28.112Z,8.00
2018-12-24T04:59:58.992Z,8.70
2018-12-24T05:02:29.689Z,7.83
2018-12-24T05:05:00.183Z,7.40
2018-12-24T05:07:30.449Z,7.90
2018-12-24T05:10:00.786Z,7.20
2018-12-24T05:12:31.187Z,7.67
2018-12-24T05:15:01.557Z,8.30
2018-12-24T05:17:31.852Z,8.10
2018-12-24T05:20:02.315Z,6.97
2018-12-24T05:22:32.577Z,7.53
2018-12-24T05:25:02.957Z,8.47
2018-12-24T05:27:33.362Z,7.40
2018-12-24T05:30:03.763Z,6.30
2018-12-24T05:32:34.146Z,7.33
2018-12-24T05:35:04.470Z,7.30
2018-12-24T05:37:34.851Z,7.40
2018-12-24T05:40:06.421Z,7.87
2018-12-24T05:42:36.829Z,7.60
2018-12-24T05:45:07.214Z,6.90
2018-12-24T05:47:37.990Z,7.40
2018-12-24T05:50:08.363Z,6.77
2018-12-24T05:52:38.625Z,7.37
2018-12-24T05:55:08.918Z,7.43
2018-12-24T05:57:39.203Z,7.60
2018-12-24T06:00:09.578Z,7.80
2018-12-24T06:02:40.221Z,6.63
2018-12-24T06:05:10.890Z,7.10
2018-12-24T06:07:41.182Z,7.23
2018-12-24T06:10:11.580Z,7.23
2018-12-24T06:12:42.841Z,8.00
2018-12-24T06:15:13.144Z,6.27
2018-12-24T06:17:43.835Z,6.30
2018-12-24T06:20:14.241Z,4.33
2018-12-24T06:22:45.529Z,3.37
2018-12-24T06:25:16.033Z,4.00
2018-12-24T06:27:46.412Z,4.80
2018-12-24T06:30:16.684Z,4.10
2018-12-24T06:32:48.326Z,3.83
2018-12-24T06:35:18.670Z,3.20
2018-12-24T06:37:48.943Z,3.00
2018-12-24T06:40:19.231Z,3.63
2018-12-24T06:42:49.833Z,3.83
2018-12-24T06:45:20.693Z,3.53
2018-12-24T06:47:50.977Z,3.50
2018-12-24T06:50:21.366Z,4.17
2018-12-24T06:53:02.132Z,3.53
2018-12-24T06:55:36.438Z,3.70
2018-12-24T06:58:14.645Z,3.80
2018-12-24T07:00:45.102Z,3.90
2018-12-24T07:03:16.841Z,3.60
2018-12-24T07:05:47.362Z,3.73
2018-12-24T07:08:18.197Z,3.70
2018-12-24T07:10:48.831Z,3.90
2018-12-24T07:13:22.937Z,3.60
2018-12-24T07:15:54.123Z,3.87
2018-12-24T07:18:25.269Z,4.40
2018-12-24T07:20:56.120Z,4.90
2018-12-24T07:23:28.253Z,3.90
2018-12-24T07:25:59.639Z,5.17
2018-12-24T07:28:30.013Z,5.90
2018-12-24T07:31:00.401Z,6.77
2018-12-24T07:33:30.823Z,6.90
2018-12-24T07:36:01.207Z,7.50
2018-12-24T07:38:32.031Z,8.33
2018-12-24T07:41:02.421Z,8.30
2018-12-24T07:43:32.821Z,8.37
2018-12-24T07:46:03.235Z,7.10
2018-12-24T07:48:33.705Z,7.30
2018-12-24T07:51:04.158Z,7.17
2018-12-24T07:53:35.345Z,6.50
2018-12-24T07:56:05.927Z,7.17
2018-12-24T07:58:39.573Z,7.27
2018-12-24T08:01:11.766Z,6.40
2018-12-24T08:03:42.130Z,6.47
2018-12-24T08:06:12.576Z,7.00
2018-12-24T08:08:42.842Z,6.10
2018-12-24T08:11:13.554Z,5.50
2018-12-24T08:13:44.026Z,5.67
2018-12-24T08:16:14.914Z,5.70
2018-12-24T08:18:45.426Z,5.27
2018-12-24T08:21:16.045Z,5.47
2018-12-24T08:23:46.588Z,5.73
2018-12-24T08:26:16.906Z,5.07
2018-12-24T08:28:47.669Z,4.03
2018-12-24T08:31:18.056Z,4.40
2018-12-24T08:33:48.405Z,5.20
2018-12-24T08:36:19.371Z,5.80
2018-12-24T08:38:50.072Z,5.60
2018-12-24T08:41:21.827Z,4.33
2018-12-24T08:43:52.473Z,5.13
2018-12-24T08:46:22.780Z,5.03
2018-12-24T08:48:53.166Z,4.43
2018-12-24T08:51:23.561Z,5.00
2018-12-24T08:53:54.349Z,4.80
2018-12-24T08:56:24.658Z,5.40
2018-12-24T08:58:54.938Z,4.40
2018-12-24T09:01:25.313Z,4.40
2018-12-24T09:03:55.627Z,4.00
2018-12-24T09:06:25.948Z,4.30
2018-12-24T09:08:56.252Z,4.90
2018-12-24T09:11:26.938Z,4.50
2018-12-24T09:13:58.062Z,5.10
2018-12-24T09:16:28.379Z,4.43
2018-12-24T09:18:59.083Z,4.00
2018-12-24T09:21:29.538Z,4.10
2018-12-24T09:23:59.825Z,4.40
2018-12-24T09:26:31.250Z,4.50
2018-12-24T09:29:01.604Z,4.23
2018-12-24T09:31:33.001Z,4.03
2018-12-24T09:34:37.123Z,4.47
2018-12-24T09:37:06.982Z,4.20
2018-12-24T09:39:36.862Z,4.43
2018-12-24T09:42:06.853Z,4.20
2018-12-24T09:44:37.701Z,3.90
2018-12-24T09:47:07.600Z,4.17
2018-12-24T09:49:37.452Z,3.87
2018-12-24T09:52:07.429Z,4.37
2018-12-24T09:54:37.410Z,4.50
2018-12-24T09:57:07.327Z,3.90
2018-12-24T09:59:37.242Z,3.90
2018-12-24T10:02:07.174Z,3.37
2018-12-24T10:04:46.400Z,3.20
2018-12-24T10:07:44.391Z,2.83
2018-12-24T10:10:17.095Z,3.37
2018-12-24T10:12:47.343Z,2.93
2018-12-24T10:15:17.273Z,3.10
2018-12-24T10:17:47.213Z,3.27
2018-12-24T10:20:17.205Z,3.17
2018-12-24T10:22:47.138Z,3.50
2018-12-24T10:25:16.999Z,3.67
2018-12-24T10:27:46.861Z,3.87
2018-12-24T10:30:17.679Z,3.63
2018-12-24T10:32:47.794Z,3.67
2018-12-24T10:35:17.707Z,3.47
2018-12-24T10:37:48.681Z,4.20
2018-12-24T10:40:19.183Z,3.20
2018-12-24T10:42:49.269Z,3.60
2018-12-24T10:45:19.113Z,3.37
2018-12-24T10:47:50.246Z,2.93
2018-12-24T10:50:20.088Z,3.50
2018-12-24T10:52:50.152Z,3.23
2018-12-24T10:55:20.647Z,3.17
2018-12-24T10:57:52.790Z,4.23
2018-12-24T11:00:22.773Z,4.00
2018-12-24T11:02:52.832Z,3.77
2018-12-24T11:05:22.994Z,4.23
2018-12-24T11:07:52.947Z,3.80
2018-12-24T11:10:22.980Z,3.80
2018-12-24T11:12:52.894Z,4.17
2018-12-24T11:15:25.241Z,4.00
2018-12-24T11:17:54.871Z,3.70
2018-12-24T11:20:24.714Z,4.13
2018-12-24T11:22:54.618Z,4.00
2018-12-24T11:25:24.456Z,4.37
2018-12-24T11:27:55.173Z,4.70
2018-12-24T11:30:25.026Z,5.10
2018-12-24T11:32:54.961Z,4.30
2018-12-24T11:35:26.583Z,3.93
2018-12-24T11:37:57.404Z,4.00
2018-12-24T11:40:27.862Z,3.90
2018-12-24T11:42:57.716Z,3.70
2018-12-24T11:45:33.714Z,3.83
2018-12-24T11:47:59.521Z,3.10
2018-12-24T11:50:29.744Z,3.40
2018-12-24T11:53:00.149Z,3.50
2018-12-24T11:55:30.002Z,3.30
2018-12-24T11:57:59.969Z,3.33
2018-12-24T12:00:30.139Z,3.50
2018-12-24T12:03:00.157Z,3.40
2018-12-24T12:05:30.679Z,3.60
2018-12-24T12:08:00.528Z,4.10
2018-12-24T12:10:30.398Z,3.60
2018-12-24T12:13:00.235Z,3.90
2018-12-24T12:15:30.112Z,3.43
2018-12-24T12:18:00.029Z,3.90
2018-12-24T12:20:30.520Z,3.23
2018-12-24T12:23:00.729Z,3.70
2018-12-24T12:25:30.715Z,3.30
2018-12-24T12:28:00.581Z,3.60
2018-12-24T12:30:30.433Z,3.50
2018-12-24T12:33:00.568Z,4.20
2018-12-24T12:35:30.465Z,3.87
2018-12-24T12:38:00.308Z,4.10
2018-12-24T12:40:30.182Z,4.10
2018-12-24T12:43:00.130Z,3.77
2018-12-24T12:45:30.137Z,3.90
2018-12-24T12:48:00.080Z,4.03
2018-12-24T12:50:30.020Z,3.77
2018-12-24T12:53:00.181Z,4.13
2018-12-24T12:55:30.087Z,3.70
2018-12-24T12:58:00.009Z,3.93
2018-12-24T13:00:29.888Z,3.67
2018-12-24T13:02:59.747Z,3.77
2018-12-24T13:05:29.593Z,3.87
2018-12-24T13:07:59.424Z,3.47
2018-12-24T13:10:29.540Z,3.37
2018-12-24T13:12:59.792Z,4.27
2018-12-24T13:15:29.640Z,3.40
2018-12-24T13:17:59.611Z,3.20
2018-12-24T13:20:29.529Z,3.43
2018-12-24T13:22:59.453Z,3.60
2018-12-24T13:25:29.485Z,3.93
2018-12-24T13:27:59.352Z,4.10
2018-12-24T13:30:29.322Z,3.57
2018-12-24T13:32:59.517Z,2.93
2018-12-24T13:35:29.528Z,3.67
2018-12-24T13:37:59.503Z,3.53
2018-12-24T13:40:29.482Z,3.30
2018-12-24T13:42:59.636Z,3.23
2018-12-24T13:45:29.493Z,3.37
2018-12-24T13:47:59.624Z,2.90
2018-12-24T13:50:29.494Z,3.10
2018-12-24T13:52:59.396Z,3.57
2018-12-24T13:55:29.234Z,3.53
2018-12-24T13:57:59.326Z,3.37
2018-12-24T14:00:29.663Z,3.57
2018-12-24T14:02:59.599Z,3.40
2018-12-24T14:05:30.120Z,3.93
2018-12-24T14:07:59.973Z,3.33
2018-12-24T14:10:29.826Z,3.60
2018-12-24T14:12:59.776Z,5.00
2018-12-24T14:15:29.614Z,4.30
2018-12-24T14:18:00.175Z,3.60
2018-12-24T14:20:30.014Z,3.43
2018-12-24T14:22:59.893Z,8.50
2018-12-24T14:25:29.742Z,4.03
2018-12-24T14:28:02.035Z,3.30
2018-12-24T14:30:32.096Z,3.37
2018-12-24T14:33:02.042Z,3.37
2018-12-24T14:35:32.869Z,3.63
2018-12-24T14:38:02.763Z,3.07
2018-12-24T14:40:32.877Z,3.73
2018-12-24T14:43:02.831Z,2.97
2018-12-24T14:45:32.665Z,3.37
2018-12-24T14:48:02.881Z,3.20
2018-12-24T14:50:33.113Z,3.17
2018-12-24T14:53:03.138Z,3.80
2018-12-24T14:55:33.101Z,3.53
2018-12-24T14:58:03.181Z,3.60
2018-12-24T15:00:33.401Z,4.40
2018-12-24T15:03:03.659Z,4.60
2018-12-24T15:05:33.568Z,4.60
2018-12-24T15:08:03.877Z,4.90
2018-12-24T15:10:33.715Z,4.57
2018-12-24T15:13:03.932Z,4.80
2018-12-24T15:15:33.817Z,4.77
2018-12-24T15:18:03.711Z,4.57
2018-12-24T15:20:33.533Z,4.67
2018-12-24T15:23:03.492Z,5.00
2018-12-24T15:25:33.789Z,4.20
2018-12-24T15:28:04.064Z,5.00
2018-12-24T15:30:34.640Z,5.30
2018-12-24T15:33:04.577Z,5.17
2018-12-24T15:35:34.697Z,5.23
2018-12-24T15:38:04.639Z,4.77
2018-12-24T15:40:34.567Z,4.80
2018-12-24T15:43:04.638Z,5.40
2018-12-24T15:45:34.524Z,5.10
2018-12-24T15:48:04.392Z,5.70
2018-12-24T15:50:34.985Z,6.00
2018-12-24T15:53:05.261Z,5.97
2018-12-24T15:55:35.256Z,5.83
2018-12-24T15:58:05.152Z,5.73
2018-12-24T16:00:35.559Z,5.50
2018-12-24T16:03:05.908Z,5.20
2018-12-24T16:05:35.784Z,4.50
2018-12-24T16:08:05.701Z,6.23
2018-12-24T16:10:36.180Z,6.73
2018-12-24T16:13:06.039Z,5.40
2018-12-24T16:15:35.973Z,5.17
2018-12-24T16:18:05.816Z,5.20
2018-12-24T16:20:35.754Z,6.27
2018-12-24T16:23:06.070Z,6.10
2018-12-24T16:25:35.951Z,6.03
2018-12-24T16:28:05.860Z,6.27
2018-12-24T16:30:35.828Z,6.07
2018-12-24T16:33:05.789Z,5.50
2018-12-24T16:35:35.665Z,5.03
2018-12-24T16:38:05.880Z,4.87
2018-12-24T16:40:36.073Z,5.20
2018-12-24T16:43:06.042Z,4.73
2018-12-24T16:45:36.386Z,5.30
2018-12-24T16:48:06.858Z,5.53
2018-12-24T16:50:36.715Z,5.57
2018-12-24T16:53:06.589Z,4.70
2018-12-24T16:55:36.633Z,5.43
2018-12-24T16:58:06.647Z,4.80
2018-12-24T17:00:36.870Z,5.20
2018-12-24T17:03:07.209Z,5.10
2018-12-24T17:05:37.095Z,5.67
2018-12-24T17:08:07.017Z,5.53
2018-12-24T17:10:37.631Z,5.40
2018-12-24T17:13:07.467Z,5.80
2018-12-24T17:15:37.372Z,5.50
2018-12-24T17:18:07.213Z,6.80
2018-12-24T17:20:37.214Z,6.30
2018-12-24T17:23:07.192Z,5.93
2018-12-24T17:25:37.154Z,6.30
2018-12-24T17:28:07.024Z,5.40
2018-12-24T17:30:37.376Z,6.50
2018-12-24T17:33:07.225Z,5.80
2018-12-24T17:35:37.508Z,5.30
2018-12-24T17:38:07.425Z,5.40
2018-12-24T17:40:37.593Z,5.60
2018-12-24T17:43:08.446Z,5.07
2018-12-24T17:45:38.375Z,6.87
2018-12-24T17:48:14.415Z,6.23
2018-12-24T17:50:44.296Z,5.90
2018-12-24T17:53:14.146Z,7.30
2018-12-24T17:55:44.714Z,7.07
2018-12-24T17:58:14.576Z,6.50
2018-12-24T18:00:44.654Z,7.17
2018-12-24T18:03:14.524Z,6.03
2018-12-24T18:05:44.375Z,7.63
2018-12-24T18:08:14.301Z,7.30
2018-12-24T18:10:44.237Z,6.63
2018-12-24T18:13:14.150Z,7.33
2018-12-24T18:15:47.047Z,6.80
2018-12-24T18:18:16.978Z,6.80
2018-12-24T18:20:46.929Z,7.47
2018-12-24T18:23:16.768Z,7.23
2018-12-24T18:25:46.647Z,6.87
2018-12-24T18:28:16.652Z,8.83
2018-12-24T18:30:46.561Z,7.83
2018-12-24T18:33:16.750Z,7.00
2018-12-24T18:35:46.614Z,7.13
2018-12-24T18:38:16.840Z,6.60
2018-12-24T18:40:47.056Z,7.47
2018-12-24T18:43:16.920Z,7.13
2018-12-24T18:45:46.801Z,6.80
2018-12-24T18:48:16.749Z,8.87
2018-12-24T18:50:47.053Z,6.97
2018-12-24T18:53:17.587Z,6.90
2018-12-24T18:55:47.503Z,7.23
2018-12-24T18:58:17.530Z,9.97
2018-12-24T19:00:47.405Z,9.63
2018-12-24T19:03:17.624Z,11.10
2018-12-24T19:05:47.672Z,12.00
2018-12-24T19:08:17.708Z,10.60
2018-12-24T19:10:47.572Z,11.00
2018-12-24T19:13:17.438Z,10.47
2018-12-24T19:15:47.652Z,8.80
2018-12-24T19:18:17.528Z,8.87
2018-12-24T19:20:48.725Z,9.40
2018-12-24T19:23:18.698Z,9.50
2018-12-24T19:25:48.703Z,9.20
2018-12-24T19:28:19.391Z,10.20
2018-12-24T19:30:49.253Z,9.90
2018-12-24T19:33:19.482Z,9.30
2018-12-24T19:35:49.396Z,10.10
2018-12-24T19:38:19.693Z,9.30
2018-12-24T19:40:49.643Z,12.30
2018-12-24T19:43:19.545Z,8.73
2018-12-24T19:45:49.381Z,9.07
2018-12-24T19:48:19.253Z,8.60
2018-12-24T19:50:49.182Z,9.20
2018-12-24T19:53:19.056Z,9.53
2018-12-24T19:55:48.998Z,10.13
2018-12-24T19:58:18.945Z,10.20
2018-12-24T20:00:49.067Z,10.60
2018-12-24T20:03:19.444Z,10.80
2018-12-24T20:05:49.278Z,9.87
2018-12-24T20:08:19.364Z,9.17
2018-12-24T20:10:49.999Z,8.33
2018-12-24T20:13:24.006Z,8.60
2018-12-24T20:15:54.767Z,9.33
2018-12-24T20:18:24.692Z,8.20
2018-12-24T20:20:56.049Z,8.87
2018-12-24T20:23:32.399Z,9.00
2018-12-24T20:26:02.653Z,9.87
2018-12-24T20:28:32.714Z,8.73
2018-12-24T20:31:04.629Z,9.80
2018-12-24T20:33:34.584Z,9.70
2018-12-24T20:36:05.312Z,9.27
2018-12-24T20:38:37.124Z,9.03
2018-12-24T20:41:07.313Z,8.80
2018-12-24T20:43:37.216Z,9.20
2018-12-24T20:46:07.089Z,9.00
2018-12-24T20:48:39.384Z,9.43
2018-12-24T20:51:16.113Z,10.33
2018-12-24T20:53:40.835Z,9.00
2018-12-24T20:56:14.363Z,9.43
2018-12-24T20:58:44.385Z,9.80
2018-12-24T21:01:14.350Z,9.43
2018-12-24T21:03:44.223Z,8.97
2018-12-24T21:06:14.411Z,8.67
2018-12-24T21:08:44.289Z,9.60
2018-12-24T21:11:14.136Z,10.97
2018-12-24T21:13:44.864Z,10.00
2018-12-24T21:16:14.835Z,9.03
2018-12-24T21:18:44.766Z,9.53
2018-12-24T21:21:14.693Z,9.10
2018-12-24T21:23:44.956Z,10.20
2018-12-24T21:26:15.193Z,9.20
2018-12-24T21:28:45.204Z,10.10
2018-12-24T21:31:15.057Z,9.83
2018-12-24T21:33:44.913Z,9.10
2018-12-24T21:36:15.144Z,10.20
2018-12-24T21:38:45.018Z,9.50
2018-12-24T21:41:14.956Z,8.90
2018-12-24T21:43:44.819Z,8.83
2018-12-24T21:46:14.681Z,9.47
2018-12-24T21:48:44.537Z,9.10
2018-12-24T21:51:14.427Z,9.00
2018-12-24T21:53:44.285Z,8.93
2018-12-24T21:56:14.485Z,8.80
2018-12-24T21:58:44.321Z,8.50
2018-12-24T22:01:14.455Z,8.37
2018-12-24T22:03:44.315Z,8.30
2018-12-24T22:06:14.277Z,8.23
2018-12-24T22:08:44.262Z,8.70
2018-12-24T22:11:14.143Z,9.00
2018-12-24T22:13:44.321Z,8.47
2018-12-24T22:16:14.302Z,8.30
2018-12-24T22:18:44.163Z,7.90
2018-12-24T22:21:14.044Z,8.07
2018-12-24T22:23:43.926Z,9.30
2018-12-24T22:26:14.197Z,7.70
2018-12-24T22:28:44.056Z,8.17
2018-12-24T22:31:13.939Z,7.83
2018-12-24T22:33:43.798Z,8.40
2018-12-24T22:36:13.710Z,8.30
2018-12-24T22:38:43.844Z,7.80
2018-12-24T22:41:13.780Z,7.50
2018-12-24T22:43:43.704Z,7.77
2018-12-24T22:46:13.965Z,7.90
2018-12-24T22:48:43.820Z,8.00
2018-12-24T22:51:13.677Z,8.17
2018-12-24T22:53:43.520Z,7.80
2018-12-24T22:56:13.792Z,8.90
2018-12-24T22:58:43.636Z,8.40
2018-12-24T23:01:13.506Z,7.90
2018-12-24T23:03:43.410Z,8.40
2018-12-24T23:06:13.408Z,7.87
2018-12-24T23:08:43.259Z,9.03
2018-12-24T23:11:13.152Z,8.33
2018-12-24T23:13:43.157Z,9.07
2018-12-24T23:16:13.777Z,9.60
2018-12-24T23:18:49.336Z,7.93
2018-12-24T23:21:15.676Z,9.00
2018-12-24T23:23:45.513Z,10.80
2018-12-24T23:26:15.413Z,9.00
2018-12-24T23:28:45.298Z,9.00
2018-12-24T23:31:15.173Z,9.80
2018-12-24T23:33:45.397Z,9.10
2018-12-24T23:36:15.511Z,10.10
2018-12-24T23:38:45.433Z,9.20
2018-12-24T23:41:15.391Z,9.07
2018-12-24T23:43:45.707Z,8.60
2018-12-24T23:46:15.742Z,8.23
2018-12-24T23:48:48.119Z,8.13
2018-12-24T23:51:18.128Z,7.57
2018-12-24T23:53:48.073Z,8.30
2018-12-24T23:56:17.928Z,7.27
2018-12-24T23:58:47.880Z,8.00
